createdAt,value
2022-11-28T00:04:39.405Z,30.13
2022-11-28T00:09:42.995Z,30.33
2022-11-28T00:14:47.634Z,30.73
2022-11-28T00:19:50.950Z,32.80
2022-11-28T00:24:54.204Z,32.03
2022-11-28T00:29:59.048Z,29.25
2022-11-28T00:35:02.753Z,29.63
2022-11-28T00:40:07.035Z,29.27
2022-11-28T00:45:12.179Z,29.00
2022-11-28T00:50:15.485Z,27.65
2022-11-28T00:55:19.171Z,22.85
2022-11-28T01:00:24.916Z,23.38
2022-11-28T01:05:28.358Z,22.93
2022-11-28T01:10:31.895Z,23.17
2022-11-28T01:15:37.128Z,25.33
2022-11-28T01:20:40.432Z,22.97
2022-11-28T01:25:43.866Z,29.30
2022-11-28T01:30:48.539Z,28.67
2022-11-28T01:35:59.132Z,33.03
2022-11-28T01:41:02.993Z,30.60
2022-11-28T01:46:07.737Z,34.45
2022-11-28T01:51:11.737Z,37.00
2022-11-28T01:56:19.098Z,40.38
2022-11-28T02:01:26.416Z,36.22
2022-11-28T02:06:30.009Z,38.22
2022-11-28T02:12:04.343Z,42.58
2022-11-28T02:17:17.899Z,45.20
2022-11-28T02:22:26.677Z,40.63
2022-11-28T02:28:05.015Z,47.53
2022-11-28T02:33:18.491Z,47.97
2022-11-28T02:38:24.225Z,48.15
2022-11-28T02:43:34.154Z,48.20
2022-11-28T02:48:47.099Z,41.47
2022-11-28T02:53:52.145Z,45.63
2022-11-28T02:58:55.425Z,44.80
2022-11-28T03:04:20.126Z,40.70
2022-11-28T03:09:42.302Z,34.60
2022-11-28T03:14:53.144Z,36.90
2022-11-28T03:20:11.846Z,36.87
2022-11-28T03:25:24.488Z,40.95
2022-11-28T03:30:34.008Z,40.60
2022-11-28T03:35:44.648Z,40.00
2022-11-28T03:40:52.216Z,37.10
2022-11-28T03:45:59.466Z,42.55
2022-11-28T03:51:09.185Z,38.80
2022-11-28T03:56:14.835Z,37.10
2022-11-28T04:01:28.547Z,39.03
2022-11-28T04:06:40.983Z,37.65
2022-11-28T04:11:50.776Z,35.90
2022-11-28T04:16:59.419Z,41.70
2022-11-28T04:22:09.681Z,39.17
2022-11-28T04:27:18.713Z,35.08
2022-11-28T04:32:23.638Z,38.22
2022-11-28T04:37:29.520Z,34.65
2022-11-28T04:42:38.402Z,35.33
2022-11-28T04:47:42.368Z,33.97
2022-11-28T04:52:54.763Z,35.63
2022-11-28T04:58:02.116Z,37.55
2022-11-28T05:03:06.717Z,32.90
2022-11-28T05:08:11.551Z,32.57
2022-11-28T05:13:15.130Z,25.90
2022-11-28T05:18:18.494Z,29.20
2022-11-28T05:23:23.163Z,50.88
2022-11-28T05:28:26.427Z,31.67
2022-11-28T05:33:30.557Z,27.08
2022-11-28T05:38:35.760Z,25.48
2022-11-28T05:43:39.087Z,24.83
2022-11-28T05:48:42.548Z,26.02
2022-11-28T05:53:47.197Z,25.30
2022-11-28T05:58:50.847Z,28.73
2022-11-28T06:03:59.843Z,31.33
2022-11-28T06:09:06.114Z,27.35
2022-11-28T06:14:09.680Z,24.23
2022-11-28T06:19:14.216Z,22.10
2022-11-28T06:24:19.232Z,25.08
2022-11-28T06:29:22.518Z,20.20
2022-11-28T06:34:26.065Z,20.85
2022-11-28T06:39:31.980Z,24.40
2022-11-28T06:44:35.530Z,20.87
2022-11-28T06:49:38.826Z,18.95
2022-11-28T06:54:43.652Z,22.08
2022-11-28T06:59:46.913Z,22.80
2022-11-28T07:04:50.365Z,22.35
2022-11-28T07:09:55.194Z,26.50
2022-11-28T07:14:58.407Z,25.50
2022-11-28T07:20:01.747Z,25.15
2022-11-28T07:25:07.061Z,24.47
2022-11-28T07:30:11.294Z,20.90
2022-11-28T07:35:14.545Z,20.08
2022-11-28T07:40:20.703Z,27.13
2022-11-28T07:45:32.985Z,23.43
2022-11-28T07:50:47.365Z,19.98
2022-11-28T07:55:52.085Z,16.38
2022-11-28T08:00:55.636Z,24.03
2022-11-28T08:06:03.168Z,19.48
2022-11-28T08:11:08.933Z,18.17
2022-11-28T08:16:15.028Z,18.75
2022-11-28T08:21:21.035Z,15.23
2022-11-28T08:26:30.453Z,16.63
2022-11-28T08:31:36.298Z,16.58
2022-11-28T08:36:39.782Z,16.98
2022-11-28T08:41:45.658Z,14.95
2022-11-28T08:46:49.373Z,13.55
2022-11-28T08:51:53.035Z,13.23
2022-11-28T08:56:57.633Z,13.90
2022-11-28T09:02:00.904Z,14.50
2022-11-28T09:07:04.218Z,14.00
2022-11-28T09:12:09.342Z,13.57
2022-11-28T09:17:12.662Z,12.57
2022-11-28T09:22:15.980Z,12.68
2022-11-28T09:27:20.611Z,11.70
2022-11-28T09:32:23.881Z,11.13
2022-11-28T09:37:28.972Z,13.23
2022-11-28T09:42:38.115Z,10.77
2022-11-28T09:47:43.762Z,11.83
2022-11-28T09:52:53.565Z,10.48
2022-11-28T09:57:58.454Z,12.77
2022-11-28T10:03:20.906Z,10.57
2022-11-28T10:08:35.959Z,10.02
2022-11-28T10:19:46.160Z,11.90
2022-11-28T10:24:45.684Z,12.25
2022-11-28T10:29:53.348Z,14.85
2022-11-28T10:35:02.567Z,11.50
2022-11-28T10:40:19.029Z,10.30
2022-11-28T10:45:28.834Z,12.55
2022-11-28T10:50:40.189Z,11.57
2022-11-28T10:55:57.728Z,12.27
2022-11-28T11:01:03.725Z,13.20
2022-11-28T11:06:08.398Z,11.13
2022-11-28T11:11:23.568Z,11.47
2022-11-28T11:16:47.917Z,12.20
2022-11-28T11:22:00.795Z,16.88
2022-11-28T11:27:06.885Z,12.37
2022-11-28T11:32:21.812Z,14.20
2022-11-28T11:37:33.909Z,13.88
2022-11-28T11:42:37.395Z,13.65
2022-11-28T11:47:45.878Z,14.40
2022-11-28T11:53:02.794Z,13.73
2022-11-28T11:58:06.734Z,13.82
2022-11-28T12:03:20.747Z,15.90
2022-11-28T12:08:32.871Z,12.27
2022-11-28T12:13:36.285Z,11.47
2022-11-28T12:18:52.965Z,12.13
2022-11-28T12:24:08.168Z,13.18
2022-11-28T12:29:34.256Z,12.10
2022-11-28T12:34:51.195Z,12.50
2022-11-28T12:40:04.185Z,12.70
2022-11-28T12:45:23.490Z,12.27
2022-11-28T12:50:34.087Z,13.65
2022-11-28T12:55:45.927Z,13.43
2022-11-28T13:00:54.982Z,13.73
2022-11-28T13:06:12.500Z,13.20
2022-11-28T13:11:28.303Z,13.63
2022-11-28T13:16:37.166Z,13.48
2022-11-28T13:21:46.849Z,12.82
2022-11-28T13:26:59.148Z,16.93
2022-11-28T13:32:08.182Z,15.70
2022-11-28T13:43:06.422Z,16.10
2022-11-28T13:54:43.436Z,14.13
2022-11-28T13:59:51.658Z,14.77
2022-11-28T14:04:55.200Z,14.02
2022-11-28T14:10:13.389Z,15.82
2022-11-28T14:15:28.875Z,17.00
2022-11-28T14:20:47.196Z,17.30
2022-11-28T14:25:55.026Z,15.73
2022-11-28T14:31:09.504Z,18.27
2022-11-28T14:36:29.621Z,16.03
2022-11-28T14:42:30.535Z,17.87
2022-11-28T14:47:42.546Z,18.25
2022-11-28T14:52:48.073Z,17.95
2022-11-28T14:57:58.936Z,19.95
2022-11-28T15:03:18.840Z,21.33
2022-11-28T15:08:50.106Z,25.17
2022-11-28T15:14:16.049Z,28.27
2022-11-28T15:19:26.096Z,23.77
2022-11-28T15:24:32.644Z,34.53
2022-11-28T15:29:37.940Z,26.10
2022-11-28T15:34:42.473Z,24.70
2022-11-28T15:39:48.697Z,24.30
2022-11-28T15:44:57.860Z,23.77
2022-11-28T15:50:03.469Z,23.00
2022-11-28T15:55:16.744Z,23.60
2022-11-28T16:00:24.403Z,24.27
2022-11-28T16:05:28.753Z,26.10
2022-11-28T16:10:36.475Z,32.47
2022-11-28T16:15:44.710Z,32.75
2022-11-28T16:20:51.434Z,32.87
2022-11-28T16:26:01.549Z,32.33
2022-11-28T16:31:13.383Z,34.70
2022-11-28T16:36:22.741Z,32.20
2022-11-28T16:41:27.259Z,29.08
2022-11-28T16:46:35.986Z,29.07
2022-11-28T16:51:41.120Z,29.65
2022-11-28T16:56:45.510Z,34.60
2022-11-28T17:01:53.632Z,34.17
2022-11-28T17:06:59.235Z,29.63
2022-11-28T17:12:05.769Z,34.22
2022-11-28T17:17:14.829Z,29.37
2022-11-28T17:22:20.947Z,29.53
2022-11-28T17:27:24.259Z,30.20
2022-11-28T17:32:28.923Z,30.73
2022-11-28T17:37:32.172Z,28.80
2022-11-28T17:42:35.465Z,32.95
2022-11-28T17:47:40.185Z,30.20
2022-11-28T17:52:43.605Z,39.55
2022-11-28T17:57:47.371Z,41.65
2022-11-28T18:02:52.455Z,33.22
2022-11-28T18:07:55.818Z,29.27
2022-11-28T18:12:59.142Z,31.98
2022-11-28T18:18:04.459Z,30.13
2022-11-28T18:23:07.864Z,33.40
2022-11-28T18:28:17.289Z,28.92
2022-11-28T18:33:24.342Z,28.63
2022-11-28T18:38:27.791Z,27.00
2022-11-28T18:43:31.303Z,27.58
2022-11-28T18:48:38.967Z,31.67
2022-11-28T18:53:42.841Z,30.73
2022-11-28T18:58:47.933Z,29.25
2022-11-28T19:03:54.585Z,34.00
2022-11-28T19:09:00.437Z,49.27
2022-11-28T19:14:04.198Z,34.70
2022-11-28T19:19:08.871Z,32.83
2022-11-28T19:24:12.958Z,30.17
2022-11-28T19:29:16.302Z,30.73
2022-11-28T19:34:21.341Z,33.45
2022-11-28T19:39:26.509Z,32.67
2022-11-28T19:44:30.718Z,30.97
2022-11-28T19:49:35.999Z,31.10
2022-11-28T19:54:39.387Z,29.70
2022-11-28T19:59:44.357Z,29.38
2022-11-28T20:04:49.387Z,31.73
2022-11-28T20:09:52.698Z,31.55
2022-11-28T20:14:56.163Z,29.63
2022-11-28T20:20:01.077Z,33.53
2022-11-28T20:25:04.688Z,32.22
2022-11-28T20:30:10.505Z,31.27
2022-11-28T20:35:15.570Z,30.20
2022-11-28T20:40:19.361Z,32.13
2022-11-28T20:45:22.736Z,31.25
2022-11-28T20:50:27.652Z,33.47
2022-11-28T20:55:31.218Z,28.55
2022-11-28T21:00:34.502Z,30.50
2022-11-28T21:05:39.188Z,34.60
2022-11-28T21:10:43.974Z,38.07
2022-11-28T21:15:47.535Z,37.67
2022-11-28T21:20:52.985Z,32.47
2022-11-28T21:25:56.326Z,33.70
2022-11-28T21:30:59.687Z,37.53
2022-11-28T21:36:06.424Z,40.63
2022-11-28T21:41:10.072Z,39.17
2022-11-28T21:46:14.074Z,37.58
2022-11-28T21:51:19.674Z,39.00
2022-11-28T21:56:23.004Z,36.38
2022-11-28T22:01:26.411Z,38.63
2022-11-28T22:06:31.274Z,37.22
2022-11-28T22:11:36.261Z,40.45
2022-11-28T22:16:40.362Z,40.13
2022-11-28T22:21:53.833Z,41.93
2022-11-28T22:26:57.855Z,44.88
2022-11-28T22:32:01.443Z,42.55
2022-11-28T22:37:06.137Z,50.23
2022-11-28T22:42:10.138Z,41.63
2022-11-28T22:47:15.459Z,46.20
2022-11-28T22:52:20.263Z,45.97
2022-11-28T22:57:23.731Z,45.40
2022-11-28T23:02:27.400Z,48.50
2022-11-28T23:07:32.576Z,46.58
2022-11-28T23:12:36.297Z,45.60
2022-11-28T23:17:41.179Z,48.53
2022-11-28T23:22:45.947Z,47.42
2022-11-28T23:27:49.383Z,52.70
2022-11-28T23:32:52.983Z,54.33
2022-11-28T23:37:57.764Z,50.57
2022-11-28T23:43:01.155Z,43.83
2022-11-28T23:48:04.531Z,48.83
2022-11-28T23:53:09.181Z,56.13
2022-11-28T23:58:12.596Z,57.83
